Time;durP1;ratioP1;P1;durP2;ratioP2;P2;SDS_P1;SDS_P2;PMS_P1;PMS_P2;Temp;Humidity;BMP_temperature;BMP_pressure;BME280_temperature;BME280_humidity;BME280_pressure;Samples;Min_cycle;Max_cycle;Signal;HPM_P1;HPM_P2
2022/10/02 00:00:29;;;;;;;5.07;2.00;;;10.20;99.90;;;;;;5031099;28;20546;-48
2022/10/02 00:03:01;;;;;;;5.83;2.10;;;10.10;99.90;;;;;;5026150;28;20467;-49
2022/10/02 00:05:34;;;;;;;4.60;1.83;;;10.10;99.90;;;;;;5027499;22;20487;-50
2022/10/02 00:08:05;;;;;;;8.73;2.10;;;10.20;99.90;;;;;;5013025;28;20949;-50
2022/10/02 00:10:38;;;;;;;8.90;2.00;;;10.10;99.90;;;;;;5012842;28;20554;-49
2022/10/02 00:13:12;;;;;;;3.30;1.87;;;10.10;99.90;;;;;;5011336;28;20550;-49
2022/10/02 00:15:41;;;;;;;2.93;1.80;;;10.10;99.90;;;;;;5010415;28;20574;-49
2022/10/02 00:18:12;;;;;;;4.07;1.77;;;10.10;99.90;;;;;;5012311;28;20623;-51
2022/10/02 00:20:45;;;;;;;6.60;2.17;;;10.10;99.90;;;;;;5011150;28;20897;-49
2022/10/02 00:23:19;;;;;;;5.47;2.00;;;10.10;99.90;;;;;;5012532;28;20551;-50
2022/10/02 00:25:53;;;;;;;4.97;1.70;;;10.10;99.90;;;;;;5012813;28;20570;-49
2022/10/02 00:28:27;;;;;;;3.50;2.20;;;10.10;99.90;;;;;;5012047;28;20555;-50
2022/10/02 00:31:05;;;;;;;10.30;1.70;;;10.20;99.90;;;;;;5009313;28;21023;-50
2022/10/02 00:33:41;;;;;;;6.30;1.93;;;10.10;99.90;;;;;;5012753;28;20498;-50
2022/10/02 00:36:21;;;;;;;5.00;1.60;;;10.10;99.90;;;;;;5012964;28;20578;-50
2022/10/02 00:38:54;;;;;;;5.23;2.23;;;10.10;99.90;;;;;;5012100;28;20976;-50
2022/10/02 00:41:57;;;;;;;2.63;1.70;;;10.20;99.90;;;;;;5011438;28;20571;-50
2022/10/02 00:44:41;;;;;;;3.37;1.70;;;10.10;99.90;;;;;;5008109;28;20554;-49
2022/10/02 00:47:16;;;;;;;7.50;1.80;;;10.10;99.90;;;;;;5010870;28;21103;-50
2022/10/02 00:50:02;;;;;;;6.33;1.77;;;10.10;99.90;;;;;;5013512;28;20474;-49
2022/10/02 00:52:46;;;;;;;8.23;1.60;;;10.10;99.90;;;;;;5013073;28;20455;-50
2022/10/02 00:55:34;;;;;;;10.33;2.23;;;10.10;99.90;;;;;;5009457;28;20555;-49
2022/10/02 00:58:21;;;;;;;13.13;2.17;;;10.10;99.90;;;;;;5005760;28;20523;-51
2022/10/02 01:00:55;;;;;;;10.43;2.23;;;10.10;99.90;;;;;;5012041;28;20977;-50
2022/10/02 01:03:23;;;;;;;5.67;1.90;;;10.10;99.90;;;;;;5012934;28;20472;-49
2022/10/02 01:05:51;;;;;;;7.47;1.60;;;10.10;99.90;;;;;;5012883;28;20559;-49
2022/10/02 01:08:20;;;;;;;6.80;1.87;;;10.10;99.90;;;;;;5012156;28;20502;-50
2022/10/02 01:10:47;;;;;;;4.47;2.00;;;10.10;99.90;;;;;;5012129;28;20464;-48
2022/10/02 01:13:14;;;;;;;5.27;1.90;;;10.10;99.90;;;;;;5011002;28;20554;-50
2022/10/02 01:15:47;;;;;;;6.43;2.50;;;10.10;99.90;;;;;;5011723;28;20574;-50
2022/10/02 01:18:15;;;;;;;4.80;1.87;;;10.10;99.90;;;;;;5005666;28;20499;-50
2022/10/02 01:20:45;;;;;;;6.43;1.67;;;10.10;99.90;;;;;;5012520;28;20531;-50
2022/10/02 01:23:19;;;;;;;10.70;2.17;;;10.10;99.90;;;;;;5011085;28;20551;-49
2022/10/02 01:25:47;;;;;;;9.30;2.30;;;10.10;99.90;;;;;;5012081;28;20566;-48
2022/10/02 01:28:14;;;;;;;14.00;2.27;;;10.10;99.90;;;;;;5010230;28;20593;-50
2022/10/02 01:30:44;;;;;;;5.93;2.23;;;10.10;99.90;;;;;;5010314;28;20468;-49
2022/10/02 01:33:13;;;;;;;11.67;2.50;;;10.10;99.90;;;;;;5011060;28;20491;-49
2022/10/02 01:35:40;;;;;;;4.60;1.97;;;10.10;99.90;;;;;;5011781;28;20519;-49
2022/10/02 01:38:09;;;;;;;8.17;2.67;;;10.10;99.90;;;;;;5011268;28;20488;-50
2022/10/02 01:40:37;;;;;;;4.77;1.90;;;10.10;99.90;;;;;;5010410;28;20635;-50
2022/10/02 01:43:09;;;;;;;5.53;2.37;;;10.10;99.90;;;;;;5007470;28;20539;-50
2022/10/02 01:45:53;;;;;;;7.20;2.20;;;10.10;99.90;;;;;;5007265;28;20570;-51
2022/10/02 01:48:27;;;;;;;10.63;3.23;;;10.10;99.90;;;;;;5011672;28;20484;-50
2022/10/02 01:51:07;;;;;;;8.63;2.47;;;10.00;99.90;;;;;;4992579;28;20544;-50
2022/10/02 01:53:41;;;;;;;5.67;3.97;;;10.10;99.90;;;;;;5008168;28;20491;-49
2022/10/02 01:56:15;;;;;;;6.47;2.53;;;10.00;99.90;;;;;;5009089;28;20582;-48
2022/10/02 01:58:53;;;;;;;5.80;1.83;;;10.00;99.90;;;;;;5007092;28;20551;-49
2022/10/02 02:01:32;;;;;;;7.20;1.93;;;10.00;99.90;;;;;;5009252;28;20491;-50
2022/10/02 02:04:03;;;;;;;5.83;2.03;;;10.00;99.90;;;;;;5011489;28;20529;-50
2022/10/02 02:06:33;;;;;;;9.63;2.20;;;10.00;99.90;;;;;;5011305;28;20503;-50
2022/10/02 02:09:08;;;;;;;8.93;2.23;;;10.00;99.90;;;;;;5011532;28;20535;-51
2022/10/02 02:11:38;;;;;;;8.40;3.17;;;10.00;99.90;;;;;;5009855;28;20491;-51
2022/10/02 02:14:12;;;;;;;6.63;2.10;;;10.00;99.90;;;;;;5005837;28;20499;-50
2022/10/02 02:16:43;;;;;;;11.77;2.20;;;10.00;99.90;;;;;;5009577;28;20578;-48
2022/10/02 02:19:16;;;;;;;8.63;2.20;;;10.00;99.90;;;;;;5011578;28;21008;-50
2022/10/02 02:21:48;;;;;;;5.13;1.87;;;10.00;99.90;;;;;;5011396;28;20483;-50
2022/10/02 02:24:20;;;;;;;10.63;2.43;;;10.00;99.90;;;;;;5009913;28;20550;-50
2022/10/02 02:26:47;;;;;;;13.80;3.00;;;9.90;99.90;;;;;;5010734;28;20567;-49
2022/10/02 02:29:18;;;;;;;9.70;2.27;;;9.90;99.90;;;;;;5011053;28;20463;-49
2022/10/02 02:31:49;;;;;;;10.40;2.43;;;9.90;99.90;;;;;;4999307;28;20952;-49
2022/10/02 02:34:21;;;;;;;6.17;1.90;;;9.90;99.90;;;;;;5010367;28;20596;-50
2022/10/02 02:36:52;;;;;;;9.50;2.50;;;9.90;99.90;;;;;;5010101;28;20553;-49
2022/10/02 02:39:25;;;;;;;4.53;2.00;;;9.90;99.90;;;;;;5012266;28;20559;-50
2022/10/02 02:41:57;;;;;;;5.13;2.30;;;9.90;99.90;;;;;;5015701;28;20479;-50
2022/10/02 02:44:28;;;;;;;7.00;1.83;;;9.90;99.90;;;;;;5015228;28;20451;-50
2022/10/02 02:47:05;;;;;;;7.27;2.00;;;9.90;99.90;;;;;;5014242;28;20495;-50
2022/10/02 02:49:42;;;;;;;13.20;2.17;;;9.80;99.90;;;;;;5014321;28;20462;-50
2022/10/02 02:52:13;;;;;;;8.43;1.90;;;9.80;99.90;;;;;;5014407;28;20933;-49
2022/10/02 02:54:43;;;;;;;6.50;2.20;;;9.80;99.90;;;;;;5014954;28;20886;-50
2022/10/02 02:57:11;;;;;;;8.33;2.03;;;9.80;99.90;;;;;;5014881;28;20581;-50
2022/10/02 02:59:45;;;;;;;6.83;2.10;;;9.80;99.90;;;;;;5016521;28;20499;-50
2022/10/02 03:02:11;;;;;;;11.63;2.00;;;9.70;99.90;;;;;;5013343;28;20459;-49
2022/10/02 03:04:38;;;;;;;5.30;1.90;;;9.70;99.90;;;;;;5014650;28;20494;-50
2022/10/02 03:07:05;;;;;;;6.93;2.77;;;9.70;99.90;;;;;;5013754;28;20579;-50
2022/10/02 03:09:33;;;;;;;7.80;1.80;;;9.70;99.90;;;;;;5014488;28;21052;-51
2022/10/02 03:12:08;;;;;;;8.77;2.17;;;9.70;99.90;;;;;;5013898;28;20996;-50
2022/10/02 03:15:01;;;;;;;8.90;2.30;;;9.70;99.90;;;;;;5012600;28;20505;-50
2022/10/02 03:17:40;;;;;;;8.87;2.33;;;9.70;99.90;;;;;;5013087;28;20490;-50
2022/10/02 03:20:15;;;;;;;8.30;2.73;;;9.70;99.90;;;;;;5019971;28;20560;-50
2022/10/02 03:22:50;;;;;;;5.33;2.03;;;9.70;99.90;;;;;;5013938;28;20875;-50
2022/10/02 03:25:23;;;;;;;8.30;3.07;;;9.70;99.90;;;;;;5014460;28;20963;-50
2022/10/02 03:27:53;;;;;;;3.80;2.00;;;9.70;99.90;;;;;;5013458;28;20499;-50
2022/10/02 03:30:23;;;;;;;4.17;2.23;;;9.70;99.90;;;;;;5014604;28;20981;-50
2022/10/02 03:32:52;;;;;;;13.53;2.77;;;9.70;99.90;;;;;;5012450;28;20946;-49
2022/10/02 03:35:21;;;;;;;9.13;2.70;;;9.70;99.90;;;;;;5013614;28;20463;-51
2022/10/02 03:37:49;;;;;;;6.30;2.20;;;9.60;93.50;;;;;;5013543;28;20530;-49
2022/10/02 03:40:16;;;;;;;8.40;2.30;;;9.50;94.80;;;;;;5013226;28;20495;-50
2022/10/02 03:42:43;;;;;;;5.67;2.17;;;9.60;92.40;;;;;;5012285;28;20583;-50
2022/10/02 03:45:10;;;;;;;5.33;2.40;;;9.50;91.10;;;;;;5012258;28;20542;-50
2022/10/02 03:47:38;;;;;;;9.67;2.57;;;9.50;93.60;;;;;;5013028;28;20917;-49
2022/10/02 03:50:05;;;;;;;12.13;3.57;;;9.50;96.50;;;;;;5013408;28;20491;-50
2022/10/02 03:52:34;;;;;;;11.90;3.17;;;9.50;99.20;;;;;;5012984;28;20499;-49
2022/10/02 03:55:03;;;;;;;10.70;3.57;;;9.50;98.20;;;;;;5013488;28;20491;-49
2022/10/02 03:57:33;;;;;;;11.07;3.20;;;9.50;98.80;;;;;;5011821;28;20514;-49
2022/10/02 04:00:06;;;;;;;13.37;3.60;;;9.50;99.90;;;;;;5011882;28;20491;-49
2022/10/02 04:02:37;;;;;;;10.00;3.50;;;9.50;98.00;;;;;;5013997;28;20589;-49
2022/10/02 04:05:17;;;;;;;9.07;2.67;;;9.50;94.60;;;;;;5010335;28;20466;-49
2022/10/02 04:07:47;;;;;;;10.30;2.83;;;9.50;99.90;;;;;;5014033;28;20462;-50
2022/10/02 04:10:37;;;;;;;14.93;3.87;;;9.50;98.50;;;;;;4998195;28;20502;-50
2022/10/02 04:13:11;;;;;;;10.53;4.63;;;9.50;99.90;;;;;;5008259;28;20499;-49
2022/10/02 04:15:56;;;;;;;7.30;2.83;;;9.50;99.90;;;;;;5011509;28;20494;-49
2022/10/02 04:18:26;;;;;;;11.30;3.20;;;9.50;95.50;;;;;;5013282;28;20487;-50
2022/10/02 04:20:59;;;;;;;12.73;2.97;;;9.50;92.00;;;;;;5013731;28;20458;-50
2022/10/02 04:23:29;;;;;;;8.53;3.23;;;9.50;99.00;;;;;;5013861;28;20490;-50
2022/10/02 04:26:00;;;;;;;12.07;2.03;;;9.50;91.00;;;;;;5013136;28;20491;-50
2022/10/02 04:28:34;;;;;;;12.53;3.23;;;9.50;89.30;;;;;;5011906;28;20530;-50
2022/10/02 04:31:02;;;;;;;12.70;3.33;;;9.50;93.60;;;;;;5010171;28;20973;-50
2022/10/02 04:33:28;;;;;;;12.23;2.53;;;9.50;95.30;;;;;;5012897;28;20463;-49
2022/10/02 04:36:06;;;;;;;8.97;2.50;;;9.50;96.40;;;;;;5013019;28;20845;-49
2022/10/02 04:38:47;;;;;;;6.13;2.87;;;9.50;91.20;;;;;;5012287;28;20912;-50
2022/10/02 04:41:28;;;;;;;5.87;2.13;;;9.60;93.80;;;;;;5013170;28;20479;-50
2022/10/02 04:44:08;;;;;;;13.40;2.43;;;9.60;99.90;;;;;;5010267;28;20502;-50
2022/10/02 04:46:57;;;;;;;10.53;2.37;;;9.60;96.10;;;;;;5012162;28;20506;-49
2022/10/02 04:49:45;;;;;;;12.53;2.97;;;9.60;94.00;;;;;;5006264;28;21028;-49
2022/10/02 04:52:27;;;;;;;5.50;2.00;;;9.60;99.10;;;;;;5002540;28;20523;-49
2022/10/02 04:55:17;;;;;;;13.70;3.17;;;9.60;99.90;;;;;;5011463;28;20523;-50
2022/10/02 04:57:57;;;;;;;6.73;1.90;;;9.70;99.90;;;;;;5011014;28;20578;-51
2022/10/02 05:00:25;;;;;;;3.67;2.17;;;9.70;99.90;;;;;;5010569;28;20456;-51
2022/10/02 05:03:09;;;;;;;5.43;2.17;;;9.70;99.90;;;;;;5011165;28;20948;-50
2022/10/02 05:05:53;;;;;;;9.40;2.80;;;9.70;99.90;;;;;;5011994;28;21057;-51
2022/10/02 05:08:38;;;;;;;13.93;2.37;;;9.80;99.90;;;;;;5007002;28;20546;-51
2022/10/02 05:11:26;;;;;;;6.40;2.10;;;9.80;99.90;;;;;;5011023;28;20542;-51
2022/10/02 05:14:10;;;;;;;9.10;2.60;;;9.90;99.90;;;;;;5004788;28;20551;-51
2022/10/02 05:16:53;;;;;;;6.90;2.57;;;9.90;99.90;;;;;;5010533;28;20949;-51
2022/10/02 05:19:40;;;;;;;17.23;2.47;;;9.90;99.90;;;;;;5011627;28;21008;-51
2022/10/02 05:22:22;;;;;;;10.27;2.47;;;9.90;99.90;;;;;;5012000;28;20475;-51
2022/10/02 05:25:04;;;;;;;13.07;2.70;;;9.90;99.90;;;;;;5011531;28;20475;-50
2022/10/02 05:27:56;;;;;;;7.03;2.60;;;9.90;99.90;;;;;;5011288;28;20974;-51
2022/10/02 05:30:22;;;;;;;4.10;2.23;;;9.90;99.90;;;;;;5010476;28;21037;-51
2022/10/02 05:33:04;;;;;;;7.40;2.13;;;10.00;99.90;;;;;;5012107;28;20463;-51
2022/10/02 05:35:52;;;;;;;6.37;2.33;;;10.00;99.90;;;;;;5010972;28;20561;-51
2022/10/02 05:38:29;;;;;;;9.53;2.40;;;10.00;99.90;;;;;;5011327;28;20515;-51
2022/10/02 05:41:02;;;;;;;11.30;2.77;;;10.00;97.00;;;;;;5011716;28;20499;-51
2022/10/02 05:43:35;;;;;;;9.43;2.73;;;10.00;97.90;;;;;;5011221;28;20554;-51
2022/10/02 05:46:06;;;;;;;4.30;2.37;;;10.00;99.90;;;;;;5003861;28;21255;-51
2022/10/02 05:48:40;;;;;;;12.93;3.17;;;10.10;99.90;;;;;;5011811;28;20495;-51
2022/10/02 05:51:11;;;;;;;6.90;1.90;;;10.10;99.90;;;;;;5009511;28;20903;-50
2022/10/02 05:53:43;;;;;;;4.90;1.77;;;10.10;99.90;;;;;;5011732;28;20543;-50
2022/10/02 05:56:17;;;;;;;8.30;2.70;;;10.10;95.90;;;;;;5011758;28;20571;-51
2022/10/02 05:58:51;;;;;;;9.97;2.40;;;10.10;93.80;;;;;;5010748;28;21026;-51
2022/10/02 06:01:25;;;;;;;5.07;2.10;;;10.10;91.70;;;;;;5011464;28;20463;-50
2022/10/02 06:03:59;;;;;;;10.07;2.97;;;10.20;89.00;;;;;;5011827;28;20549;-46
2022/10/02 06:06:32;;;;;;;6.37;2.40;;;10.20;87.30;;;;;;5034548;22;20572;-49
2022/10/02 06:09:03;;;;;;;7.30;2.17;;;10.30;81.90;;;;;;5037835;28;20531;-50
2022/10/02 06:11:35;;;;;;;7.70;2.13;;;10.20;80.70;;;;;;5034668;28;20523;-49
2022/10/02 06:14:10;;;;;;;4.63;1.90;;;10.30;83.30;;;;;;5043091;28;20290;-49
2022/10/02 06:16:43;;;;;;;4.87;2.07;;;10.30;91.20;;;;;;5055509;28;20513;-49
2022/10/02 06:19:15;;;;;;;10.23;2.57;;;10.40;84.70;;;;;;5054323;28;21053;-49
2022/10/02 06:21:49;;;;;;;7.60;2.60;;;10.40;85.60;;;;;;5040619;28;20543;-49
2022/10/02 06:24:21;;;;;;;6.70;3.93;;;10.50;84.70;;;;;;5055650;28;20963;-50
2022/10/02 06:26:55;;;;;;;12.90;2.83;;;10.50;86.70;;;;;;5055598;28;20504;-49
2022/10/02 06:29:28;;;;;;;5.23;3.00;;;10.60;82.60;;;;;;5049430;28;20488;-49
2022/10/02 06:32:07;;;;;;;6.17;2.30;;;10.60;81.30;;;;;;5054853;28;20453;-49
2022/10/02 06:34:33;;;;;;;6.00;1.93;;;10.70;75.20;;;;;;5053714;28;20902;-49
2022/10/02 06:37:24;;;;;;;7.30;2.90;;;10.80;72.50;;;;;;5044867;28;21726;-46
2022/10/02 06:40:04;;;;;;;2.77;1.83;;;10.80;20.20;;;;;;5053793;28;20509;-48
2022/10/02 06:42:42;;;;;;;20.10;2.77;;;10.90;20.30;;;;;;5048970;28;20486;-47
2022/10/02 06:45:20;;;;;;;7.60;2.80;;;10.90;72.50;;;;;;5047997;28;20974;-46
2022/10/02 06:48:00;;;;;;;11.97;2.50;;;11.00;20.60;;;;;;5055174;28;20480;-47
2022/10/02 06:50:42;;;;;;;9.00;2.47;;;11.00;20.70;;;;;;5055214;28;20460;-47
2022/10/02 06:53:22;;;;;;;11.57;2.00;;;11.10;21.30;;;;;;5052590;28;20975;-46
2022/10/02 06:56:00;;;;;;;3.80;1.80;;;11.10;21.90;;;;;;5053218;28;20507;-46
2022/10/02 06:58:44;;;;;;;12.83;2.70;;;11.20;24.30;;;;;;5047044;28;20474;-48
2022/10/02 07:01:24;;;;;;;6.93;3.40;;;11.30;25.60;;;;;;5046806;28;20927;-46
2022/10/02 07:04:11;;;;;;;13.07;2.70;;;11.30;26.00;;;;;;5053924;28;20913;-46
2022/10/02 07:06:58;;;;;;;6.33;1.77;;;11.40;25.70;;;;;;5046000;28;20477;-46
2022/10/02 07:09:55;;;;;;;8.67;2.40;;;11.50;30.60;;;;;;5044859;28;20545;-47
2022/10/02 07:12:45;;;;;;;9.77;2.57;;;11.50;36.90;;;;;;5046975;28;20517;-46
2022/10/02 07:15:56;;;;;;;12.97;2.97;;;11.60;46.50;;;;;;5036707;28;20534;-47
2022/10/02 07:18:33;;;;;;;5.07;2.70;;;11.70;50.60;;;;;;5044348;28;20564;-46
2022/10/02 07:21:07;;;;;;;7.87;2.47;;;11.70;70.20;;;;;;5034575;28;20890;-47
2022/10/02 07:23:45;;;;;;;12.23;3.00;;;11.70;70.80;;;;;;5035808;28;20545;-46
2022/10/02 07:26:30;;;;;;;21.23;3.20;;;11.70;75.10;;;;;;5042688;28;20908;-46
2022/10/02 07:29:08;;;;;;;9.57;2.93;;;11.80;82.60;;;;;;5043807;28;21258;-47
2022/10/02 07:31:47;;;;;;;12.23;3.07;;;12.00;81.80;;;;;;5053210;28;20537;-47
2022/10/02 07:34:28;;;;;;;9.43;2.73;;;12.00;92.40;;;;;;5054252;28;20544;-46
2022/10/02 07:37:05;;;;;;;10.07;2.90;;;12.10;95.70;;;;;;5051037;28;21110;-46
2022/10/02 07:39:43;;;;;;;8.47;2.90;;;12.20;98.40;;;;;;5049842;28;20920;-46
2022/10/02 07:42:37;;;;;;;11.43;4.80;;;12.30;99.90;;;;;;5043521;28;20553;-47
2022/10/02 07:45:26;;;;;;;6.80;2.93;;;12.40;99.90;;;;;;5042752;28;20528;-47
2022/10/02 07:48:07;;;;;;;9.17;3.60;;;12.40;99.90;;;;;;5039219;28;20474;-47
2022/10/02 07:50:44;;;;;;;9.23;3.10;;;12.40;99.90;;;;;;5035679;28;20446;-48
2022/10/02 07:53:19;;;;;;;12.67;3.20;;;12.60;99.90;;;;;;5040546;28;20547;-46
2022/10/02 07:55:52;;;;;;;14.10;2.73;;;12.60;99.90;;;;;;5041817;28;20550;-47
2022/10/02 07:58:29;;;;;;;9.50;3.20;;;12.60;99.90;;;;;;5045996;28;20573;-48
2022/10/02 08:01:00;;;;;;;7.43;3.13;;;12.60;99.90;;;;;;5046183;28;20553;-46
2022/10/02 08:03:33;;;;;;;18.87;4.10;;;12.60;99.90;;;;;;5045810;28;20494;-47
2022/10/02 08:06:01;;;;;;;9.40;3.23;;;12.60;99.90;;;;;;5051488;28;20575;-46
2022/10/02 08:08:31;;;;;;;9.00;3.20;;;12.60;99.90;;;;;;5047221;28;20536;-47
2022/10/02 08:11:04;;;;;;;16.97;3.87;;;12.60;99.90;;;;;;5053101;28;20507;-47
2022/10/02 08:13:35;;;;;;;14.10;4.03;;;12.60;99.90;;;;;;5051693;28;20486;-47
2022/10/02 08:16:04;;;;;;;10.40;3.53;;;12.60;99.90;;;;;;5045090;28;20492;-47
2022/10/02 08:18:35;;;;;;;12.50;5.10;;;12.60;99.90;;;;;;5044932;28;20481;-47
2022/10/02 08:21:03;;;;;;;10.17;3.50;;;12.60;99.90;;;;;;5053295;28;20529;-47
2022/10/02 08:23:36;;;;;;;9.33;3.50;;;12.60;99.90;;;;;;5053477;28;20955;-47
2022/10/02 08:26:07;;;;;;;9.47;3.93;;;12.70;99.90;;;;;;5046529;28;20478;-47
2022/10/02 08:28:42;;;;;;;21.60;3.73;;;12.70;99.90;;;;;;5050320;28;20481;-48
2022/10/02 08:31:10;;;;;;;14.73;5.60;;;12.80;99.90;;;;;;5045767;28;20524;-46
2022/10/02 08:33:38;;;;;;;11.23;4.37;;;12.80;99.90;;;;;;5049701;28;20455;-47
2022/10/02 08:36:38;;;;;;;10.27;3.47;;;12.80;99.90;;;;;;5046244;28;20481;-46
2022/10/02 08:39:20;;;;;;;10.53;3.60;;;12.80;99.90;;;;;;5053186;28;20573;-46
2022/10/02 08:42:16;;;;;;;10.93;3.50;;;12.80;99.90;;;;;;5050201;28;20462;-47
2022/10/02 08:45:19;;;;;;;12.73;3.80;;;12.90;99.90;;;;;;5037524;28;20492;-47
2022/10/02 08:48:10;;;;;;;14.50;7.40;;;12.90;99.90;;;;;;5047893;28;20573;-46
2022/10/02 08:51:06;;;;;;;20.10;4.73;;;13.00;99.90;;;;;;5045945;28;20542;-47
2022/10/02 08:54:10;;;;;;;15.77;3.90;;;13.00;99.90;;;;;;5050437;28;20481;-46
2022/10/02 08:57:12;;;;;;;19.13;4.57;;;13.00;99.90;;;;;;5041715;28;20556;-47
2022/10/02 09:00:03;;;;;;;8.43;3.70;;;13.00;99.90;;;;;;5051235;28;20488;-45
2022/10/02 09:03:09;;;;;;;12.53;3.70;;;13.00;99.90;;;;;;5034699;28;20466;-46
2022/10/02 09:06:08;;;;;;;16.83;5.10;;;13.00;99.90;;;;;;5032927;28;20529;-46
2022/10/02 09:09:03;;;;;;;26.43;5.00;;;13.10;99.90;;;;;;5036147;28;20568;-47
2022/10/02 09:11:53;;;;;;;18.47;4.77;;;13.10;99.90;;;;;;5045424;28;20465;-46
2022/10/02 09:14:57;;;;;;;15.17;4.50;;;13.20;99.90;;;;;;5044810;28;20554;-47
2022/10/02 09:17:44;;;;;;;15.90;4.33;;;13.20;99.90;;;;;;5048322;28;21034;-46
2022/10/02 09:20:50;;;;;;;19.23;4.47;;;13.20;99.90;;;;;;5040182;28;20489;-47
2022/10/02 09:23:54;;;;;;;11.23;4.13;;;13.30;99.90;;;;;;5033672;28;20558;-46
2022/10/02 09:26:32;;;;;;;19.50;4.93;;;13.30;99.90;;;;;;5042158;28;20478;-47
2022/10/02 09:29:37;;;;;;;14.67;5.27;;;13.30;99.90;;;;;;5051266;28;20442;-47
2022/10/02 09:32:49;;;;;;;19.17;6.57;;;13.40;99.90;;;;;;5039949;28;20568;-47
2022/10/02 09:35:51;;;;;;;16.73;5.63;;;13.50;99.90;;;;;;5037027;28;21024;-46
2022/10/02 09:38:57;;;;;;;16.43;4.80;;;13.60;99.90;;;;;;5035503;28;20565;-47
2022/10/02 09:41:52;;;;;;;11.20;3.90;;;13.80;99.90;;;;;;5051722;28;20537;-47
2022/10/02 09:45:11;;;;;;;14.53;4.13;;;13.90;99.90;;;;;;5032578;28;20530;-45
2022/10/02 09:48:17;;;;;;;17.97;4.77;;;14.30;24.40;;;;;;4932326;29;20553;-50
2022/10/02 09:51:17;;;;;;;17.47;4.87;;;14.70;35.80;;;;;;5032255;28;20529;-50
2022/10/02 09:54:13;;;;;;;18.67;4.73;;;14.70;66.60;;;;;;5032102;28;20523;-51
2022/10/02 09:57:11;;;;;;;11.80;3.77;;;14.60;76.80;;;;;;5044366;28;20480;-50
2022/10/02 09:59:58;;;;;;;19.40;4.63;;;14.40;76.60;;;;;;5030166;28;20485;-51
2022/10/02 10:02:54;;;;;;;12.13;3.70;;;14.30;69.50;;;;;;5051362;28;20464;-51
2022/10/02 10:05:49;;;;;;;17.23;4.47;;;14.20;62.10;;;;;;5051759;28;20529;-51
2022/10/02 10:08:51;;;;;;;14.43;4.37;;;14.00;25.80;;;;;;5050631;28;20458;-51
2022/10/02 10:11:42;;;;;;;17.57;6.03;;;13.80;99.90;;;;;;5042363;28;20481;-50
2022/10/02 10:14:34;;;;;;;14.93;4.13;;;13.40;99.90;;;;;;5042186;28;20543;-51
2022/10/02 10:17:27;;;;;;;15.50;4.80;;;13.10;99.90;;;;;;5046807;28;20517;-51
2022/10/02 10:20:35;;;;;;;13.53;5.13;;;13.00;99.90;;;;;;5046368;28;20599;-50
2022/10/02 10:23:16;;;;;;;14.30;4.80;;;12.80;99.90;;;;;;5051176;28;20811;-51
2022/10/02 10:26:19;;;;;;;11.17;4.20;;;12.70;99.90;;;;;;5049284;28;20450;-51
2022/10/02 10:29:32;;;;;;;10.73;3.87;;;12.60;99.90;;;;;;5048417;28;20462;-51
2022/10/02 10:32:31;;;;;;;16.93;4.40;;;12.50;91.80;;;;;;5049015;28;20519;-50
2022/10/02 10:35:08;;;;;;;12.60;4.00;;;12.40;83.00;;;;;;5050783;28;20449;-51
2022/10/02 10:40:42;;;;;;;8.00;5.50;;;12.50;64.80;;;;;;5051349;28;20471;-52
2022/10/02 10:43:40;;;;;;;13.93;4.87;;;12.60;55.50;;;;;;5048670;28;20540;-51
2022/10/02 10:46:20;;;;;;;14.23;5.13;;;12.60;49.60;;;;;;5050935;28;20462;-51
2022/10/02 10:49:15;;;;;;;10.80;5.50;;;12.60;40.40;;;;;;5045171;28;20484;-50
2022/10/02 10:51:51;;;;;;;10.50;5.83;;;12.70;31.60;;;;;;5047380;28;20886;-49
2022/10/02 10:54:46;;;;;;;10.23;5.57;;;12.70;29.70;;;;;;5050478;28;20473;-50
2022/10/02 10:57:22;;;;;;;13.70;6.10;;;12.80;25.00;;;;;;5045564;28;20485;-51
2022/10/02 11:00:18;;;;;;;16.93;6.17;;;13.00;87.30;;;;;;5050618;28;20915;-51
2022/10/02 11:03:33;;;;;;;13.33;5.10;;;13.10;99.90;;;;;;5042085;28;20643;-50
2022/10/02 11:06:16;;;;;;;10.10;4.63;;;13.20;99.90;;;;;;5045093;28;20520;-51
2022/10/02 11:09:10;;;;;;;10.93;5.53;;;13.40;99.90;;;;;;5053472;28;20533;-51
2022/10/02 11:11:47;;;;;;;7.70;4.93;;;13.40;99.90;;;;;;5035253;28;20465;-50
2022/10/02 11:14:28;;;;;;;14.80;5.27;;;13.40;99.90;;;;;;5046812;28;20946;-50
2022/10/02 11:17:20;;;;;;;9.43;4.03;;;13.30;99.90;;;;;;5034610;28;20506;-50
2022/10/02 11:20:01;;;;;;;9.37;3.83;;;13.20;99.90;;;;;;5048426;28;20889;-51
2022/10/02 11:23:03;;;;;;;16.67;4.40;;;13.20;99.90;;;;;;5052092;28;20473;-50
2022/10/02 11:25:45;;;;;;;10.60;5.20;;;13.30;99.90;;;;;;5008302;28;20473;-50
2022/10/02 11:28:32;;;;;;;19.10;5.83;;;13.30;99.90;;;;;;5042917;28;20840;-51
2022/10/02 11:31:16;;;;;;;16.40;4.43;;;13.30;99.90;;;;;;5054334;28;20849;-51
2022/10/02 11:34:02;;;;;;;12.70;4.93;;;13.20;99.90;;;;;;5035325;28;20550;-51
2022/10/02 11:36:55;;;;;;;10.53;4.03;;;13.20;92.20;;;;;;5043957;28;20565;-50
2022/10/02 11:39:50;;;;;;;10.57;3.57;;;13.10;21.40;;;;;;5051853;28;20573;-51
2022/10/02 11:42:41;;;;;;;12.83;4.00;;;13.20;73.60;;;;;;5043245;28;20552;-50
2022/10/02 11:45:35;;;;;;;9.13;4.40;;;13.20;83.50;;;;;;5052392;28;20462;-51
2022/10/02 11:48:33;;;;;;;8.07;3.93;;;13.20;94.80;;;;;;5038166;28;20494;-50
2022/10/02 11:51:11;;;;;;;11.30;3.20;;;13.20;80.40;;;;;;5034584;28;20493;-50
2022/10/02 11:53:56;;;;;;;7.87;3.20;;;13.30;20.00;;;;;;5048813;28;20927;-51
2022/10/02 11:56:41;;;;;;;6.77;3.40;;;13.30;23.10;;;;;;5050770;28;20827;-50
2022/10/02 11:59:22;;;;;;;8.57;3.33;;;13.30;28.50;;;;;;5044801;28;21045;-51
2022/10/02 12:01:56;;;;;;;10.10;5.50;;;13.30;35.50;;;;;;5042721;28;20499;-51
2022/10/02 12:04:38;;;;;;;10.90;3.57;;;13.30;39.10;;;;;;5051558;28;20530;-50
2022/10/02 12:07:19;;;;;;;10.03;3.93;;;13.40;41.10;;;;;;5062589;22;20497;-48
2022/10/02 12:09:59;;;;;;;5.43;2.60;;;13.40;39.80;;;;;;5053392;28;20528;-49
2022/10/02 12:12:38;;;;;;;5.73;2.67;;;13.50;43.40;;;;;;5034204;28;20544;-49
2022/10/02 12:15:12;;;;;;;7.73;2.50;;;13.60;49.40;;;;;;5040845;28;20538;-49
2022/10/02 12:17:53;;;;;;;3.70;2.43;;;13.60;63.80;;;;;;5023512;28;21062;-50
2022/10/02 12:29:23;;;;;;;6.73;2.37;;;13.50;99.90;;;;;;5018197;28;20467;-49
2022/10/02 12:31:58;;;;;;;8.57;2.00;;;13.50;99.90;;;;;;4993683;28;20475;-50
2022/10/02 12:34:40;;;;;;;7.23;2.23;;;13.50;25.20;;;;;;4994202;28;20476;-48
2022/10/02 12:37:15;;;;;;;5.33;2.20;;;13.40;58.00;;;;;;5003976;28;21040;-49
2022/10/02 12:39:49;;;;;;;5.40;2.00;;;13.40;61.80;;;;;;5023894;28;20478;-49
2022/10/02 12:42:40;;;;;;;5.13;2.17;;;13.50;74.20;;;;;;5027939;28;20495;-49
2022/10/02 12:45:21;;;;;;;13.50;2.23;;;13.70;84.00;;;;;;5024533;28;20534;-49
2022/10/02 12:48:03;;;;;;;7.17;2.20;;;14.20;99.30;;;;;;5033112;28;20550;-48
2022/10/02 12:50:53;;;;;;;8.47;1.90;;;14.40;93.60;;;;;;5029713;28;20550;-49
2022/10/02 12:53:35;;;;;;;6.73;1.93;;;14.30;89.60;;;;;;5015117;28;20432;-48
2022/10/02 12:56:30;;;;;;;5.50;1.97;;;14.40;99.90;;;;;;4993871;28;20452;-49
2022/10/02 12:59:08;;;;;;;4.40;2.00;;;14.50;99.90;;;;;;5017868;28;20549;-49
2022/10/02 13:02:10;;;;;;;5.70;2.70;;;14.50;99.90;;;;;;5030046;28;20481;-49
2022/10/02 13:05:08;;;;;;;6.47;2.90;;;14.40;99.90;;;;;;5033652;28;20484;-48
2022/10/02 13:08:08;;;;;;;4.30;2.60;;;14.30;99.90;;;;;;5024893;28;20579;-48
2022/10/02 13:10:41;;;;;;;7.40;4.03;;;14.50;99.90;;;;;;5010315;28;20514;-48
2022/10/02 13:13:23;;;;;;;8.13;3.90;;;14.50;99.90;;;;;;5015857;28;20502;-49
2022/10/02 13:15:59;;;;;;;7.97;4.00;;;14.40;99.90;;;;;;5019748;28;20972;-49
2022/10/02 13:18:43;;;;;;;17.60;9.60;;;14.30;99.90;;;;;;5024192;28;20462;-49
2022/10/02 13:21:16;;;;;;;13.50;5.90;;;14.60;99.90;;;;;;5032329;28;20479;-49
2022/10/02 13:23:53;;;;;;;3.50;2.33;;;14.70;99.90;;;;;;5011148;28;20470;-50
2022/10/02 13:26:30;;;;;;;5.57;1.97;;;15.00;99.90;;;;;;5022912;28;20490;-49
2022/10/02 13:29:28;;;;;;;6.90;2.40;;;15.20;99.90;;;;;;5027782;28;20458;-49
2022/10/02 13:32:15;;;;;;;9.43;2.17;;;15.40;99.90;;;;;;5023978;28;20987;-49
2022/10/02 13:35:02;;;;;;;5.37;2.13;;;15.40;99.90;;;;;;5032348;28;20530;-48
2022/10/02 13:37:39;;;;;;;20.87;2.70;;;15.50;99.90;;;;;;5032095;28;20495;-49
2022/10/02 13:40:17;;;;;;;3.57;2.17;;;15.50;99.90;;;;;;5025554;28;20572;-49
2022/10/02 13:43:03;;;;;;;3.63;1.70;;;15.70;99.90;;;;;;5021229;28;20478;-50
2022/10/02 13:45:35;;;;;;;7.00;2.20;;;15.70;99.90;;;;;;5015209;28;20440;-49
2022/10/02 13:48:13;;;;;;;3.43;2.07;;;15.70;99.90;;;;;;5031523;28;20502;-49
2022/10/02 13:50:50;;;;;;;4.40;2.17;;;15.70;99.90;;;;;;5032142;28;20875;-49
2022/10/02 13:53:38;;;;;;;2.63;1.70;;;15.70;99.90;;;;;;5031995;28;20955;-49
2022/10/02 13:56:17;;;;;;;5.53;2.90;;;15.70;78.50;;;;;;5026598;28;20541;-49
2022/10/02 13:59:10;;;;;;;5.47;2.07;;;15.80;99.90;;;;;;5014960;28;20955;-49
2022/10/02 14:01:48;;;;;;;4.07;1.63;;;15.80;25.70;;;;;;5016093;28;20475;-49
2022/10/02 14:04:34;;;;;;;5.67;2.40;;;15.80;29.30;;;;;;5012159;28;20932;-50